Terminal Aerodrome Forecast
Issued by NWS

Home | Current Version | Previous Version | Text Only | Print | Product List | Glossary On
Versions: 1 2 3 4 5 6 7 8 9 10 11 12 13 14 15 16 17 18 19 20 21 22 23 24
192
FTUS46 KPDT 131120
TAFALW
TAF
KALW 131120Z 1312/1412 20011KT P6SM FEW040 SCT110
     FM131600 20011KT P6SM SCT040 BKN070
     FM132200 22014G20KT P6SM SCT050 OVC090
     FM140000 18013G20KT P6SM VCSH SCT050 OVC090
     FM140300 18014KT P6SM -RA OVC050=

USA.gov is the U.S. government's official web portal to all federal, state and local government web resources and services.